sensor_id;sensor_type;location;lat;lon;timestamp;temperature;humidity
4828;DHT22;2428;48.732;9.148;2022-09-03T00:00:09;17.00;99.90
4828;DHT22;2428;48.732;9.148;2022-09-03T00:02:45;17.00;99.90
4828;DHT22;2428;48.732;9.148;2022-09-03T00:08:16;17.00;99.90
4828;DHT22;2428;48.732;9.148;2022-09-03T00:13:21;17.10;99.90
4828;DHT22;2428;48.732;9.148;2022-09-03T00:15:48;17.20;99.90
4828;DHT22;2428;48.732;9.148;2022-09-03T00:18:20;17.20;99.90
4828;DHT22;2428;48.732;9.148;2022-09-03T00:20:51;17.20;99.90
4828;DHT22;2428;48.732;9.148;2022-09-03T00:23:23;17.20;99.90
4828;DHT22;2428;48.732;9.148;2022-09-03T00:25:51;17.20;99.90
4828;DHT22;2428;48.732;9.148;2022-09-03T00:28:23;17.20;99.90
4828;DHT22;2428;48.732;9.148;2022-09-03T00:31:28;17.20;99.90
4828;DHT22;2428;48.732;9.148;2022-09-03T00:34:01;17.10;99.90
4828;DHT22;2428;48.732;9.148;2022-09-03T00:36:40;17.20;99.90
4828;DHT22;2428;48.732;9.148;2022-09-03T00:39:12;17.10;99.90
4828;DHT22;2428;48.732;9.148;2022-09-03T00:46:59;17.20;99.90
4828;DHT22;2428;48.732;9.148;2022-09-03T00:49:53;17.10;99.90
4828;DHT22;2428;48.732;9.148;2022-09-03T00:55:06;17.00;99.90
4828;DHT22;2428;48.732;9.148;2022-09-03T00:57:46;17.00;99.90
4828;DHT22;2428;48.732;9.148;2022-09-03T01:00:16;17.00;99.90
4828;DHT22;2428;48.732;9.148;2022-09-03T01:10:34;17.00;99.90
4828;DHT22;2428;48.732;9.148;2022-09-03T01:13:24;17.00;99.90
4828;DHT22;2428;48.732;9.148;2022-09-03T01:24:12;17.00;99.90
4828;DHT22;2428;48.732;9.148;2022-09-03T01:32:24;17.10;99.90
4828;DHT22;2428;48.732;9.148;2022-09-03T01:46:08;17.00;99.90
4828;DHT22;2428;48.732;9.148;2022-09-03T01:51:26;17.00;99.90
4828;DHT22;2428;48.732;9.148;2022-09-03T01:59:48;17.00;99.90
4828;DHT22;2428;48.732;9.148;2022-09-03T02:02:23;17.00;99.90
4828;DHT22;2428;48.732;9.148;2022-09-03T02:05:08;17.00;99.90
4828;DHT22;2428;48.732;9.148;2022-09-03T02:10:11;16.90;99.90
4828;DHT22;2428;48.732;9.148;2022-09-03T02:12:38;16.90;99.90
4828;DHT22;2428;48.732;9.148;2022-09-03T02:15:16;17.00;99.90
4828;DHT22;2428;48.732;9.148;2022-09-03T02:17:44;17.00;99.90
4828;DHT22;2428;48.732;9.148;2022-09-03T02:20:16;16.90;99.90
4828;DHT22;2428;48.732;9.148;2022-09-03T02:22:44;16.90;99.90
4828;DHT22;2428;48.732;9.148;2022-09-03T02:25:10;16.90;99.90
4828;DHT22;2428;48.732;9.148;2022-09-03T02:27:37;16.90;99.90
4828;DHT22;2428;48.732;9.148;2022-09-03T02:30:04;16.90;99.90
4828;DHT22;2428;48.732;9.148;2022-09-03T02:32:30;16.90;99.90
4828;DHT22;2428;48.732;9.148;2022-09-03T02:34:56;16.90;99.90
4828;DHT22;2428;48.732;9.148;2022-09-03T02:37:22;16.90;99.90
4828;DHT22;2428;48.732;9.148;2022-09-03T02:39:48;16.90;99.90
4828;DHT22;2428;48.732;9.148;2022-09-03T02:42:14;16.80;99.90
4828;DHT22;2428;48.732;9.148;2022-09-03T02:44:54;16.90;99.90
4828;DHT22;2428;48.732;9.148;2022-09-03T02:47:22;16.80;99.90
4828;DHT22;2428;48.732;9.148;2022-09-03T02:49:49;16.70;99.90
4828;DHT22;2428;48.732;9.148;2022-09-03T02:52:15;16.70;99.90
4828;DHT22;2428;48.732;9.148;2022-09-03T02:54:41;16.70;99.90
4828;DHT22;2428;48.732;9.148;2022-09-03T02:57:11;16.60;99.90
4828;DHT22;2428;48.732;9.148;2022-09-03T02:59:38;16.60;99.90
4828;DHT22;2428;48.732;9.148;2022-09-03T03:02:04;16.50;99.90
4828;DHT22;2428;48.732;9.148;2022-09-03T03:04:31;16.50;99.90
4828;DHT22;2428;48.732;9.148;2022-09-03T03:06:57;16.50;99.90
4828;DHT22;2428;48.732;9.148;2022-09-03T03:09:22;16.50;99.90
4828;DHT22;2428;48.732;9.148;2022-09-03T03:11:48;16.50;99.90
4828;DHT22;2428;48.732;9.148;2022-09-03T03:14:16;16.50;99.90
4828;DHT22;2428;48.732;9.148;2022-09-03T03:16:41;16.40;99.90
4828;DHT22;2428;48.732;9.148;2022-09-03T03:19:07;16.40;99.90
4828;DHT22;2428;48.732;9.148;2022-09-03T03:21:33;16.50;99.90
4828;DHT22;2428;48.732;9.148;2022-09-03T03:24:00;16.50;99.90
4828;DHT22;2428;48.732;9.148;2022-09-03T03:26:26;16.40;99.90
4828;DHT22;2428;48.732;9.148;2022-09-03T03:28:55;16.30;99.90
4828;DHT22;2428;48.732;9.148;2022-09-03T03:31:22;16.30;99.90
4828;DHT22;2428;48.732;9.148;2022-09-03T03:33:52;16.20;99.90
4828;DHT22;2428;48.732;9.148;2022-09-03T03:36:19;16.30;99.90
4828;DHT22;2428;48.732;9.148;2022-09-03T03:38:45;16.20;99.90
4828;DHT22;2428;48.732;9.148;2022-09-03T03:41:16;16.10;99.90
4828;DHT22;2428;48.732;9.148;2022-09-03T03:43:42;16.10;99.90
4828;DHT22;2428;48.732;9.148;2022-09-03T03:46:08;16.10;99.90
4828;DHT22;2428;48.732;9.148;2022-09-03T03:48:35;16.10;99.90
4828;DHT22;2428;48.732;9.148;2022-09-03T03:51:02;16.10;99.90
4828;DHT22;2428;48.732;9.148;2022-09-03T03:53:32;16.20;99.90
4828;DHT22;2428;48.732;9.148;2022-09-03T03:56:00;16.10;99.90
4828;DHT22;2428;48.732;9.148;2022-09-03T03:58:30;16.20;99.90
4828;DHT22;2428;48.732;9.148;2022-09-03T04:01:07;16.20;99.90
4828;DHT22;2428;48.732;9.148;2022-09-03T04:03:33;16.20;99.90
4828;DHT22;2428;48.732;9.148;2022-09-03T04:05:59;16.10;99.90
4828;DHT22;2428;48.732;9.148;2022-09-03T04:08:26;16.10;99.90
4828;DHT22;2428;48.732;9.148;2022-09-03T04:10:52;16.20;99.90
4828;DHT22;2428;48.732;9.148;2022-09-03T04:13:18;16.10;99.90
4828;DHT22;2428;48.732;9.148;2022-09-03T04:15:44;16.10;99.90
4828;DHT22;2428;48.732;9.148;2022-09-03T04:18:10;16.00;99.90
4828;DHT22;2428;48.732;9.148;2022-09-03T04:20:36;16.10;99.90
4828;DHT22;2428;48.732;9.148;2022-09-03T04:23:03;16.10;99.90
4828;DHT22;2428;48.732;9.148;2022-09-03T04:25:28;16.10;99.90
4828;DHT22;2428;48.732;9.148;2022-09-03T04:27:54;16.10;99.90
4828;DHT22;2428;48.732;9.148;2022-09-03T04:30:20;16.10;99.90
4828;DHT22;2428;48.732;9.148;2022-09-03T04:32:49;16.10;99.90
4828;DHT22;2428;48.732;9.148;2022-09-03T04:35:18;16.10;99.90
4828;DHT22;2428;48.732;9.148;2022-09-03T04:37:45;16.10;99.90
4828;DHT22;2428;48.732;9.148;2022-09-03T04:40:11;16.10;99.90
4828;DHT22;2428;48.732;9.148;2022-09-03T04:42:37;16.10;99.90
4828;DHT22;2428;48.732;9.148;2022-09-03T04:45:03;16.10;99.90
4828;DHT22;2428;48.732;9.148;2022-09-03T04:47:28;16.10;99.90
4828;DHT22;2428;48.732;9.148;2022-09-03T04:49:54;16.10;99.90
4828;DHT22;2428;48.732;9.148;2022-09-03T04:52:20;16.00;99.90
4828;DHT22;2428;48.732;9.148;2022-09-03T04:54:46;16.00;99.90
4828;DHT22;2428;48.732;9.148;2022-09-03T04:57:11;16.00;99.90
4828;DHT22;2428;48.732;9.148;2022-09-03T04:59:38;16.00;99.90
4828;DHT22;2428;48.732;9.148;2022-09-03T05:02:05;16.10;99.90
4828;DHT22;2428;48.732;9.148;2022-09-03T05:04:31;16.10;99.90
4828;DHT22;2428;48.732;9.148;2022-09-03T05:06:56;16.00;99.90
4828;DHT22;2428;48.732;9.148;2022-09-03T05:09:22;16.00;99.90
4828;DHT22;2428;48.732;9.148;2022-09-03T05:11:48;16.00;99.90
4828;DHT22;2428;48.732;9.148;2022-09-03T05:14:14;16.00;99.90
4828;DHT22;2428;48.732;9.148;2022-09-03T05:16:39;16.10;99.90
4828;DHT22;2428;48.732;9.148;2022-09-03T05:19:05;16.10;99.90
4828;DHT22;2428;48.732;9.148;2022-09-03T05:21:32;16.10;99.90
4828;DHT22;2428;48.732;9.148;2022-09-03T05:24:00;16.20;99.90
4828;DHT22;2428;48.732;9.148;2022-09-03T05:26:29;16.20;99.90
4828;DHT22;2428;48.732;9.148;2022-09-03T05:29:00;16.30;99.90
4828;DHT22;2428;48.732;9.148;2022-09-03T05:31:28;16.30;99.90
4828;DHT22;2428;48.732;9.148;2022-09-03T05:33:57;16.30;99.90
4828;DHT22;2428;48.732;9.148;2022-09-03T05:36:26;16.40;99.90
4828;DHT22;2428;48.732;9.148;2022-09-03T05:38:52;16.40;99.90
4828;DHT22;2428;48.732;9.148;2022-09-03T05:41:21;16.40;99.90
4828;DHT22;2428;48.732;9.148;2022-09-03T05:43:48;16.40;99.90
4828;DHT22;2428;48.732;9.148;2022-09-03T05:46:21;16.50;99.90
4828;DHT22;2428;48.732;9.148;2022-09-03T05:48:48;16.50;99.90
4828;DHT22;2428;48.732;9.148;2022-09-03T05:51:15;16.50;99.90
4828;DHT22;2428;48.732;9.148;2022-09-03T05:53:45;16.50;99.90
4828;DHT22;2428;48.732;9.148;2022-09-03T05:56:19;16.50;99.90
4828;DHT22;2428;48.732;9.148;2022-09-03T05:58:47;16.50;99.90
4828;DHT22;2428;48.732;9.148;2022-09-03T06:01:15;16.50;99.90
4828;DHT22;2428;48.732;9.148;2022-09-03T06:03:43;16.50;99.90
4828;DHT22;2428;48.732;9.148;2022-09-03T06:06:10;16.50;99.90
4828;DHT22;2428;48.732;9.148;2022-09-03T06:08:36;16.50;99.90
4828;DHT22;2428;48.732;9.148;2022-09-03T06:11:06;16.60;99.90
4828;DHT22;2428;48.732;9.148;2022-09-03T06:13:33;16.60;99.90
4828;DHT22;2428;48.732;9.148;2022-09-03T06:16:01;16.60;99.90
4828;DHT22;2428;48.732;9.148;2022-09-03T06:18:27;16.70;99.90
4828;DHT22;2428;48.732;9.148;2022-09-03T06:21:02;16.60;99.90
4828;DHT22;2428;48.732;9.148;2022-09-03T06:23:29;16.70;99.90
4828;DHT22;2428;48.732;9.148;2022-09-03T06:26:13;16.70;99.90
4828;DHT22;2428;48.732;9.148;2022-09-03T06:28:41;16.80;99.90
4828;DHT22;2428;48.732;9.148;2022-09-03T06:31:09;16.80;99.90
4828;DHT22;2428;48.732;9.148;2022-09-03T06:33:36;16.90;99.90
4828;DHT22;2428;48.732;9.148;2022-09-03T06:36:04;16.90;99.90
4828;DHT22;2428;48.732;9.148;2022-09-03T06:38:32;16.90;99.90
4828;DHT22;2428;48.732;9.148;2022-09-03T06:41:01;16.90;99.90
4828;DHT22;2428;48.732;9.148;2022-09-03T06:43:30;17.00;99.90
4828;DHT22;2428;48.732;9.148;2022-09-03T06:46:02;17.00;99.90
4828;DHT22;2428;48.732;9.148;2022-09-03T06:48:30;17.00;99.90
4828;DHT22;2428;48.732;9.148;2022-09-03T06:53:28;17.10;99.90
4828;DHT22;2428;48.732;9.148;2022-09-03T06:55:59;17.20;99.90
4828;DHT22;2428;48.732;9.148;2022-09-03T06:58:34;17.20;99.90
4828;DHT22;2428;48.732;9.148;2022-09-03T07:01:13;17.30;99.90
4828;DHT22;2428;48.732;9.148;2022-09-03T07:03:41;17.30;99.90
4828;DHT22;2428;48.732;9.148;2022-09-03T07:06:12;17.30;99.90
4828;DHT22;2428;48.732;9.148;2022-09-03T07:08:38;17.40;99.90
4828;DHT22;2428;48.732;9.148;2022-09-03T07:11:06;17.40;99.90
4828;DHT22;2428;48.732;9.148;2022-09-03T07:13:39;17.40;99.90
4828;DHT22;2428;48.732;9.148;2022-09-03T07:16:08;17.50;99.90
4828;DHT22;2428;48.732;9.148;2022-09-03T07:18:35;17.40;99.90
4828;DHT22;2428;48.732;9.148;2022-09-03T07:21:05;17.50;99.90
4828;DHT22;2428;48.732;9.148;2022-09-03T07:23:31;17.50;99.90
4828;DHT22;2428;48.732;9.148;2022-09-03T07:26:00;17.50;99.90
4828;DHT22;2428;48.732;9.148;2022-09-03T07:28:26;17.60;99.90
4828;DHT22;2428;48.732;9.148;2022-09-03T07:30:53;17.60;99.90
4828;DHT22;2428;48.732;9.148;2022-09-03T07:33:19;17.70;99.90
4828;DHT22;2428;48.732;9.148;2022-09-03T07:35:45;17.80;99.90
4828;DHT22;2428;48.732;9.148;2022-09-03T07:38:15;17.90;99.90
4828;DHT22;2428;48.732;9.148;2022-09-03T07:40:41;18.00;99.90
4828;DHT22;2428;48.732;9.148;2022-09-03T07:43:08;18.00;99.90
4828;DHT22;2428;48.732;9.148;2022-09-03T07:45:33;18.10;99.90
4828;DHT22;2428;48.732;9.148;2022-09-03T07:47:59;18.10;99.90
4828;DHT22;2428;48.732;9.148;2022-09-03T07:50:25;18.10;99.90
4828;DHT22;2428;48.732;9.148;2022-09-03T07:52:57;18.20;99.90
4828;DHT22;2428;48.732;9.148;2022-09-03T07:55:24;18.20;99.90
4828;DHT22;2428;48.732;9.148;2022-09-03T07:57:55;18.30;99.90
4828;DHT22;2428;48.732;9.148;2022-09-03T08:00:21;18.20;99.90
4828;DHT22;2428;48.732;9.148;2022-09-03T08:02:47;18.30;99.90
4828;DHT22;2428;48.732;9.148;2022-09-03T08:05:12;18.50;99.90
4828;DHT22;2428;48.732;9.148;2022-09-03T08:07:38;18.60;99.90
4828;DHT22;2428;48.732;9.148;2022-09-03T08:10:04;18.70;99.90
4828;DHT22;2428;48.732;9.148;2022-09-03T08:12:30;18.70;99.90
4828;DHT22;2428;48.732;9.148;2022-09-03T08:14:57;18.80;99.90
4828;DHT22;2428;48.732;9.148;2022-09-03T08:17:23;19.00;99.90
4828;DHT22;2428;48.732;9.148;2022-09-03T08:19:48;19.10;99.90
4828;DHT22;2428;48.732;9.148;2022-09-03T08:22:14;19.10;99.90
4828;DHT22;2428;48.732;9.148;2022-09-03T08:24:39;19.10;99.90
4828;DHT22;2428;48.732;9.148;2022-09-03T08:27:06;18.90;99.90
4828;DHT22;2428;48.732;9.148;2022-09-03T08:29:32;19.00;99.90
4828;DHT22;2428;48.732;9.148;2022-09-03T08:31:57;19.10;99.90
4828;DHT22;2428;48.732;9.148;2022-09-03T08:34:23;19.20;99.90
4828;DHT22;2428;48.732;9.148;2022-09-03T08:36:49;19.20;99.90
4828;DHT22;2428;48.732;9.148;2022-09-03T08:39:17;19.40;99.90
4828;DHT22;2428;48.732;9.148;2022-09-03T08:42:24;19.30;99.90
4828;DHT22;2428;48.732;9.148;2022-09-03T08:45:01;19.60;99.90
4828;DHT22;2428;48.732;9.148;2022-09-03T08:47:48;19.70;99.90
4828;DHT22;2428;48.732;9.148;2022-09-03T08:50:49;19.90;99.90
4828;DHT22;2428;48.732;9.148;2022-09-03T08:56:08;20.10;99.90
4828;DHT22;2428;48.732;9.148;2022-09-03T08:58:35;20.20;99.90
4828;DHT22;2428;48.732;9.148;2022-09-03T09:11:57;20.50;99.90
4828;DHT22;2428;48.732;9.148;2022-09-03T09:17:23;20.50;99.90
4828;DHT22;2428;48.732;9.148;2022-09-03T09:20:05;20.50;99.90
4828;DHT22;2428;48.732;9.148;2022-09-03T09:22:36;20.40;99.90
4828;DHT22;2428;48.732;9.148;2022-09-03T09:25:23;20.40;99.90
4828;DHT22;2428;48.732;9.148;2022-09-03T09:27:59;20.40;99.90
4828;DHT22;2428;48.732;9.148;2022-09-03T09:30:27;20.60;99.90
4828;DHT22;2428;48.732;9.148;2022-09-03T09:32:53;20.70;99.90
4828;DHT22;2428;48.732;9.148;2022-09-03T09:35:20;20.90;99.90
4828;DHT22;2428;48.732;9.148;2022-09-03T09:37:54;21.10;99.90
4828;DHT22;2428;48.732;9.148;2022-09-03T09:40:35;21.20;99.90
4828;DHT22;2428;48.732;9.148;2022-09-03T09:45:42;21.20;99.90
4828;DHT22;2428;48.732;9.148;2022-09-03T09:48:14;21.10;99.90
4828;DHT22;2428;48.732;9.148;2022-09-03T09:50:41;21.10;99.90
4828;DHT22;2428;48.732;9.148;2022-09-03T09:53:09;21.10;99.90
4828;DHT22;2428;48.732;9.148;2022-09-03T09:55:59;21.30;99.90
4828;DHT22;2428;48.732;9.148;2022-09-03T09:58:28;21.40;99.90
4828;DHT22;2428;48.732;9.148;2022-09-03T10:01:10;21.50;99.90
4828;DHT22;2428;48.732;9.148;2022-09-03T10:03:56;21.60;99.90
4828;DHT22;2428;48.732;9.148;2022-09-03T10:06:31;21.60;99.90
4828;DHT22;2428;48.732;9.148;2022-09-03T10:09:18;21.50;99.90
4828;DHT22;2428;48.732;9.148;2022-09-03T10:11:47;21.40;99.90
4828;DHT22;2428;48.732;9.148;2022-09-03T10:14:28;21.30;99.90
4828;DHT22;2428;48.732;9.148;2022-09-03T10:17:28;21.20;99.90
4828;DHT22;2428;48.732;9.148;2022-09-03T10:25:37;21.20;99.90
4828;DHT22;2428;48.732;9.148;2022-09-03T10:28:07;21.30;99.90
4828;DHT22;2428;48.732;9.148;2022-09-03T10:30:52;21.40;99.90
4828;DHT22;2428;48.732;9.148;2022-09-03T10:33:28;21.40;99.90
4828;DHT22;2428;48.732;9.148;2022-09-03T10:38:42;22.00;99.90
4828;DHT22;2428;48.732;9.148;2022-09-03T10:46:27;22.90;99.90
4828;DHT22;2428;48.732;9.148;2022-09-03T10:51:44;25.20;99.90
4828;DHT22;2428;48.732;9.148;2022-09-03T11:00:03;26.10;99.90
4828;DHT22;2428;48.732;9.148;2022-09-03T11:05:28;25.40;99.90
4828;DHT22;2428;48.732;9.148;2022-09-03T11:10:32;24.50;99.90
4828;DHT22;2428;48.732;9.148;2022-09-03T11:15:57;23.50;99.90
4828;DHT22;2428;48.732;9.148;2022-09-03T11:18:32;23.30;99.90
4828;DHT22;2428;48.732;9.148;2022-09-03T11:21:03;23.10;99.90
4828;DHT22;2428;48.732;9.148;2022-09-03T11:23:33;22.90;99.90
4828;DHT22;2428;48.732;9.148;2022-09-03T11:26:04;22.70;99.90
4828;DHT22;2428;48.732;9.148;2022-09-03T11:28:57;22.50;99.90
4828;DHT22;2428;48.732;9.148;2022-09-03T11:36:52;22.10;99.90
4828;DHT22;2428;48.732;9.148;2022-09-03T11:41:58;21.90;99.90
4828;DHT22;2428;48.732;9.148;2022-09-03T11:44:40;21.70;99.90
4828;DHT22;2428;48.732;9.148;2022-09-03T11:47:24;21.50;99.90
4828;DHT22;2428;48.732;9.148;2022-09-03T11:52:46;21.40;99.90
4828;DHT22;2428;48.732;9.148;2022-09-03T11:55:27;21.20;99.90
4828;DHT22;2428;48.732;9.148;2022-09-03T11:57:55;21.10;99.90
4828;DHT22;2428;48.732;9.148;2022-09-03T12:00:21;20.90;99.90
4828;DHT22;2428;48.732;9.148;2022-09-03T12:03:01;20.80;99.90
4828;DHT22;2428;48.732;9.148;2022-09-03T12:05:48;20.60;99.90
4828;DHT22;2428;48.732;9.148;2022-09-03T12:11:34;20.40;99.90
4828;DHT22;2428;48.732;9.148;2022-09-03T12:17:11;20.00;99.90
4828;DHT22;2428;48.732;9.148;2022-09-03T12:19:56;19.90;99.90
4828;DHT22;2428;48.732;9.148;2022-09-03T12:22:25;19.70;99.90
4828;DHT22;2428;48.732;9.148;2022-09-03T12:24:53;19.50;99.90
4828;DHT22;2428;48.732;9.148;2022-09-03T12:27:23;19.20;99.90
4828;DHT22;2428;48.732;9.148;2022-09-03T12:30:02;18.80;99.90
4828;DHT22;2428;48.732;9.148;2022-09-03T12:32:30;18.60;99.90
4828;DHT22;2428;48.732;9.148;2022-09-03T12:34:57;18.30;99.90
4828;DHT22;2428;48.732;9.148;2022-09-03T12:37:24;18.10;99.90
4828;DHT22;2428;48.732;9.148;2022-09-03T12:39:54;17.80;99.90
4828;DHT22;2428;48.732;9.148;2022-09-03T12:42:26;17.70;99.90
4828;DHT22;2428;48.732;9.148;2022-09-03T12:44:53;17.50;99.90
4828;DHT22;2428;48.732;9.148;2022-09-03T12:47:21;17.30;99.90
4828;DHT22;2428;48.732;9.148;2022-09-03T12:49:52;17.20;99.90
4828;DHT22;2428;48.732;9.148;2022-09-03T12:52:31;17.00;99.90
4828;DHT22;2428;48.732;9.148;2022-09-03T12:57:42;17.00;99.90
4828;DHT22;2428;48.732;9.148;2022-09-03T13:00:13;17.10;99.90
4828;DHT22;2428;48.732;9.148;2022-09-03T13:03:04;17.20;99.90
4828;DHT22;2428;48.732;9.148;2022-09-03T13:05:51;17.20;99.90
4828;DHT22;2428;48.732;9.148;2022-09-03T13:08:22;17.30;99.90
4828;DHT22;2428;48.732;9.148;2022-09-03T13:10:55;17.40;99.90
4828;DHT22;2428;48.732;9.148;2022-09-03T13:13:52;17.50;99.90
4828;DHT22;2428;48.732;9.148;2022-09-03T13:29:48;17.80;99.90
4828;DHT22;2428;48.732;9.148;2022-09-03T13:35:24;17.90;99.90
4828;DHT22;2428;48.732;9.148;2022-09-03T13:38:24;17.90;99.90
4828;DHT22;2428;48.732;9.148;2022-09-03T13:43:40;18.00;99.90
4828;DHT22;2428;48.732;9.148;2022-09-03T13:48:43;18.30;99.90
4828;DHT22;2428;48.732;9.148;2022-09-03T13:51:31;18.30;99.90
4828;DHT22;2428;48.732;9.148;2022-09-03T13:57:04;18.40;99.90
4828;DHT22;2428;48.732;9.148;2022-09-03T14:02:10;18.60;99.90
4828;DHT22;2428;48.732;9.148;2022-09-03T14:15:26;18.90;99.90
4828;DHT22;2428;48.732;9.148;2022-09-03T14:21:06;19.50;99.90
4828;DHT22;2428;48.732;9.148;2022-09-03T14:26:29;20.10;99.90
4828;DHT22;2428;48.732;9.148;2022-09-03T14:29:02;20.20;99.90
4828;DHT22;2428;48.732;9.148;2022-09-03T14:36:58;20.00;99.90
4828;DHT22;2428;48.732;9.148;2022-09-03T14:39:33;19.80;99.90
4828;DHT22;2428;48.732;9.148;2022-09-03T14:42:26;19.60;99.90
4828;DHT22;2428;48.732;9.148;2022-09-03T14:52:57;19.70;99.90
4828;DHT22;2428;48.732;9.148;2022-09-03T14:55:56;19.70;99.90
4828;DHT22;2428;48.732;9.148;2022-09-03T15:01:32;20.00;99.90
4828;DHT22;2428;48.732;9.148;2022-09-03T15:12:28;20.80;99.90
4828;DHT22;2428;48.732;9.148;2022-09-03T15:14:55;20.90;99.90
4828;DHT22;2428;48.732;9.148;2022-09-03T15:20:06;21.00;99.90
4828;DHT22;2428;48.732;9.148;2022-09-03T15:36:56;20.80;99.90
4828;DHT22;2428;48.732;9.148;2022-09-03T15:39:30;21.00;99.90
4828;DHT22;2428;48.732;9.148;2022-09-03T15:55:38;20.90;99.90
4828;DHT22;2428;48.732;9.148;2022-09-03T15:58:54;20.90;99.90
4828;DHT22;2428;48.732;9.148;2022-09-03T16:01:46;20.90;99.90
4828;DHT22;2428;48.732;9.148;2022-09-03T16:12:23;20.70;99.90
4828;DHT22;2428;48.732;9.148;2022-09-03T16:15:02;20.60;99.90
4828;DHT22;2428;48.732;9.148;2022-09-03T16:17:51;20.60;99.90
4828;DHT22;2428;48.732;9.148;2022-09-03T16:20:51;20.50;99.90
4828;DHT22;2428;48.732;9.148;2022-09-03T16:23:57;20.50;99.90
4828;DHT22;2428;48.732;9.148;2022-09-03T16:26:30;20.40;99.90
4828;DHT22;2428;48.732;9.148;2022-09-03T16:29:11;20.40;99.90
4828;DHT22;2428;48.732;9.148;2022-09-03T16:32:31;20.30;99.90
4828;DHT22;2428;48.732;9.148;2022-09-03T16:42:51;20.20;99.90
4828;DHT22;2428;48.732;9.148;2022-09-03T16:48:11;20.20;99.90
4828;DHT22;2428;48.732;9.148;2022-09-03T17:01:52;20.30;99.90
4828;DHT22;2428;48.732;9.148;2022-09-03T17:10:40;20.30;99.90
4828;DHT22;2428;48.732;9.148;2022-09-03T17:21:52;20.10;99.90
4828;DHT22;2428;48.732;9.148;2022-09-03T17:41:51;19.50;99.90
4828;DHT22;2428;48.732;9.148;2022-09-03T17:44:53;19.30;99.90
4828;DHT22;2428;48.732;9.148;2022-09-03T17:50:27;19.10;99.90
4828;DHT22;2428;48.732;9.148;2022-09-03T17:53:33;19.00;99.90
4828;DHT22;2428;48.732;9.148;2022-09-03T17:56:03;19.00;99.90
4828;DHT22;2428;48.732;9.148;2022-09-03T18:01:17;18.90;99.90
4828;DHT22;2428;48.732;9.148;2022-09-03T18:03:57;18.90;99.90
4828;DHT22;2428;48.732;9.148;2022-09-03T18:06:35;18.90;99.90
4828;DHT22;2428;48.732;9.148;2022-09-03T18:09:17;18.80;99.90
4828;DHT22;2428;48.732;9.148;2022-09-03T18:14:43;18.70;99.90
4828;DHT22;2428;48.732;9.148;2022-09-03T18:17:36;18.70;99.90
4828;DHT22;2428;48.732;9.148;2022-09-03T18:20:08;18.60;99.90
4828;DHT22;2428;48.732;9.148;2022-09-03T18:25:46;18.50;99.90
4828;DHT22;2428;48.732;9.148;2022-09-03T18:28:39;18.40;99.90
4828;DHT22;2428;48.732;9.148;2022-09-03T18:31:26;18.40;99.90
4828;DHT22;2428;48.732;9.148;2022-09-03T18:34:10;18.40;99.90
4828;DHT22;2428;48.732;9.148;2022-09-03T18:36:58;18.30;99.90
4828;DHT22;2428;48.732;9.148;2022-09-03T18:39:44;18.30;99.90
4828;DHT22;2428;48.732;9.148;2022-09-03T18:42:40;18.20;99.90
4828;DHT22;2428;48.732;9.148;2022-09-03T18:57:53;17.90;99.90
4828;DHT22;2428;48.732;9.148;2022-09-03T19:00:52;17.90;99.90
4828;DHT22;2428;48.732;9.148;2022-09-03T19:16:10;17.70;99.90
4828;DHT22;2428;48.732;9.148;2022-09-03T19:22:11;17.70;99.90
4828;DHT22;2428;48.732;9.148;2022-09-03T19:25:03;17.70;99.90
4828;DHT22;2428;48.732;9.148;2022-09-03T19:37:40;17.60;99.90
4828;DHT22;2428;48.732;9.148;2022-09-03T19:46:49;17.50;99.90
4828;DHT22;2428;48.732;9.148;2022-09-03T19:52:52;17.40;99.90
4828;DHT22;2428;48.732;9.148;2022-09-03T19:55:42;17.40;99.90
4828;DHT22;2428;48.732;9.148;2022-09-03T19:58:29;17.30;99.90
4828;DHT22;2428;48.732;9.148;2022-09-03T20:01:15;17.30;99.90
4828;DHT22;2428;48.732;9.148;2022-09-03T20:04:09;17.30;99.90
4828;DHT22;2428;48.732;9.148;2022-09-03T20:06:54;17.30;99.90
4828;DHT22;2428;48.732;9.148;2022-09-03T20:09:41;17.20;99.90
4828;DHT22;2428;48.732;9.148;2022-09-03T20:12:30;17.20;99.90
4828;DHT22;2428;48.732;9.148;2022-09-03T20:14:57;17.20;99.90
4828;DHT22;2428;48.732;9.148;2022-09-03T20:23:05;17.10;99.90
4828;DHT22;2428;48.732;9.148;2022-09-03T20:26:14;17.10;99.90
4828;DHT22;2428;48.732;9.148;2022-09-03T20:34:10;17.10;99.90
4828;DHT22;2428;48.732;9.148;2022-09-03T20:51:38;17.00;99.90
4828;DHT22;2428;48.732;9.148;2022-09-03T20:54:25;17.00;99.90
4828;DHT22;2428;48.732;9.148;2022-09-03T20:57:08;17.10;99.90
4828;DHT22;2428;48.732;9.148;2022-09-03T21:00:05;17.10;99.90
4828;DHT22;2428;48.732;9.148;2022-09-03T21:05:31;17.10;99.90
4828;DHT22;2428;48.732;9.148;2022-09-03T21:08:14;17.20;99.90
4828;DHT22;2428;48.732;9.148;2022-09-03T21:10:56;17.20;99.90
4828;DHT22;2428;48.732;9.148;2022-09-03T21:13:50;17.20;99.90
4828;DHT22;2428;48.732;9.148;2022-09-03T21:19:26;17.30;99.90
4828;DHT22;2428;48.732;9.148;2022-09-03T21:24:53;17.40;99.90
4828;DHT22;2428;48.732;9.148;2022-09-03T21:27:25;17.40;99.90
4828;DHT22;2428;48.732;9.148;2022-09-03T21:30:17;17.40;99.90
4828;DHT22;2428;48.732;9.148;2022-09-03T21:32:48;17.50;99.90
4828;DHT22;2428;48.732;9.148;2022-09-03T21:35:25;17.50;99.90
4828;DHT22;2428;48.732;9.148;2022-09-03T21:37:58;17.50;99.90
4828;DHT22;2428;48.732;9.148;2022-09-03T21:40:28;17.50;99.90
4828;DHT22;2428;48.732;9.148;2022-09-03T21:43:21;17.50;99.90
4828;DHT22;2428;48.732;9.148;2022-09-03T21:46:07;17.40;99.90
4828;DHT22;2428;48.732;9.148;2022-09-03T21:48:37;17.40;99.90
4828;DHT22;2428;48.732;9.148;2022-09-03T21:52:03;17.40;99.90
4828;DHT22;2428;48.732;9.148;2022-09-03T21:54:13;17.40;99.90
4828;DHT22;2428;48.732;9.148;2022-09-03T21:59:24;17.30;99.90
4828;DHT22;2428;48.732;9.148;2022-09-03T22:02:29;17.20;99.90
4828;DHT22;2428;48.732;9.148;2022-09-03T22:04:56;17.20;99.90
4828;DHT22;2428;48.732;9.148;2022-09-03T22:12:45;17.10;99.90
4828;DHT22;2428;48.732;9.148;2022-09-03T22:15:15;16.90;99.90
4828;DHT22;2428;48.732;9.148;2022-09-03T22:20:27;16.70;99.90
4828;DHT22;2428;48.732;9.148;2022-09-03T22:22:55;16.70;99.90
4828;DHT22;2428;48.732;9.148;2022-09-03T22:25:52;16.70;99.90
4828;DHT22;2428;48.732;9.148;2022-09-03T22:28:41;16.70;99.90
4828;DHT22;2428;48.732;9.148;2022-09-03T22:31:19;16.70;99.90
4828;DHT22;2428;48.732;9.148;2022-09-03T22:36:49;16.70;99.90
4828;DHT22;2428;48.732;9.148;2022-09-03T22:39:29;16.70;99.90
4828;DHT22;2428;48.732;9.148;2022-09-03T22:42:26;16.70;99.90
4828;DHT22;2428;48.732;9.148;2022-09-03T22:49:53;16.60;99.90
4828;DHT22;2428;48.732;9.148;2022-09-03T22:52:38;16.60;99.90
4828;DHT22;2428;48.732;9.148;2022-09-03T22:58:07;16.60;99.90
4828;DHT22;2428;48.732;9.148;2022-09-03T23:00:37;16.60;99.90
4828;DHT22;2428;48.732;9.148;2022-09-03T23:03:13;16.50;99.90
4828;DHT22;2428;48.732;9.148;2022-09-03T23:05:49;16.50;99.90
4828;DHT22;2428;48.732;9.148;2022-09-03T23:08:44;16.50;99.90
4828;DHT22;2428;48.732;9.148;2022-09-03T23:11:29;16.50;99.90
4828;DHT22;2428;48.732;9.148;2022-09-03T23:14:04;16.50;99.90
4828;DHT22;2428;48.732;9.148;2022-09-03T23:16:39;16.50;99.90
4828;DHT22;2428;48.732;9.148;2022-09-03T23:19:33;16.50;99.90
4828;DHT22;2428;48.732;9.148;2022-09-03T23:22:08;16.50;99.90
4828;DHT22;2428;48.732;9.148;2022-09-03T23:24:42;16.50;99.90
4828;DHT22;2428;48.732;9.148;2022-09-03T23:27:13;16.40;99.90
4828;DHT22;2428;48.732;9.148;2022-09-03T23:29:46;16.40;99.90
4828;DHT22;2428;48.732;9.148;2022-09-03T23:32:13;16.40;99.90